Terminal Aerodrome Forecast
Issued by NWS Jackson, KY

Home | Current Version | Previous Version | Text Only | Print | Product List | Glossary On
Versions: 1 2 3 4 5 6 7 8 9 10 11 12 13 14 15 16
000
FTUS43 KJKL 240500
TAFLOZ
TAF
KLOZ 240528Z 2406/2506 03005KT 5SM -RA BR OVC005
     FM240700 34005KT 3SM -SN BR OVC003
     FM240800 33006KT 2SM -SN BR OVC003
     FM241200 31007KT P6SM OVC015
     FM241400 29007KT P6SM SCT025=

USA.gov is the U.S. government's official web portal to all federal, state and local government web resources and services.